Decoded Metar for LFBG (COGNAC in FRANCE) (IATA:CNG) | Meteo·Mobile Aviation Weather
aviador You're here:

LFBG Decoded Metar

COGNAC in FRANCE
Report Time2019-03-20 01:00:00
UTC Time2019-03-20 01:28:04
Flight Rules vfr VFR
WindCalm
Visibility9999 m
Phenomena:N/A
Clouds:N/A
Expected CloudBase > 400 ft AGL from Temp-Dew spread
CeilingNone
Temp03°C (ISA -12)
Dew Point02°C (93% RH)
AAT1.3°C
QNH1033 hPa
Density Alt-1,913 ft
Elevation102 ft
Report Wrong Elevation
Raw Report
METAR LFBG 200100Z AUTO 00000KT CAVOK 03/02 Q1033=

Extra information for LFBG:More info

Metar Taf Metar & Taf Last 4 Metars F.Rules Stats Wind Profile Meteogram Temp Stats Airport Information Weather charts Add Link Nearby VenuesMetar ALERT Operation Metar Decoded Social comments